Time;durP1;ratioP1;P1;durP2;ratioP2;P2;SDS_P1;SDS_P2;PMS_P1;PMS_P2;Temp;Humidity;BMP_temperature;BMP_pressure;BME280_temperature;BME280_humidity;BME280_pressure;Samples;Min_cycle;Max_cycle;Signal;HPM_P1;HPM_P2
2022/09/11 00:01:26;;;;;;;4.47;2.25;;;;;;;17.84;80.93;98732.24;1761655;81;21008;-80
2022/09/11 00:03:56;;;;;;;4.62;2.30;;;;;;;17.83;81.04;98737.98;1737217;82;21022;-80
2022/09/11 00:06:25;;;;;;;8.25;2.60;;;;;;;17.79;81.60;98740.87;1737400;82;20973;-80
2022/09/11 00:08:59;;;;;;;5.87;2.75;;;;;;;17.77;81.28;98743.58;1736286;82;21033;-79
2022/09/11 00:11:30;;;;;;;6.15;2.45;;;;;;;17.70;81.38;98748.81;1756953;81;20994;-79
2022/09/11 00:13:57;;;;;;;3.45;2.17;;;;;;;17.67;81.13;98744.59;1737903;81;21079;-80
2022/09/11 00:16:34;;;;;;;4.25;2.20;;;;;;;17.64;81.37;98740.82;1758990;81;20987;-80
2022/09/11 00:19:05;;;;;;;4.03;2.12;;;;;;;17.60;82.14;98736.69;1740231;81;21475;-78
2022/09/11 00:21:33;;;;;;;8.25;2.40;;;;;;;17.60;81.87;98743.26;1694150;84;21004;-79
2022/09/11 00:24:00;;;;;;;5.12;2.52;;;;;;;17.59;82.36;98744.21;1725397;83;21492;-80
2022/09/11 00:26:27;;;;;;;4.05;2.15;;;;;;;17.57;82.17;98744.77;1725936;83;21027;-79
2022/09/11 00:28:54;;;;;;;3.75;2.27;;;;;;;17.59;82.24;98742.06;1749756;80;20994;-80
2022/09/11 00:31:26;;;;;;;7.85;2.10;;;;;;;17.56;81.99;98742.23;1737106;82;21049;-82
2022/09/11 00:33:54;;;;;;;8.33;2.40;;;;;;;17.54;82.58;98748.88;1737473;80;20998;-79
2022/09/11 00:36:24;;;;;;;7.47;2.30;;;;;;;17.50;82.37;98739.02;1745509;80;20967;-79
2022/09/11 00:38:52;;;;;;;4.05;2.08;;;;;;;17.47;83.33;98747.57;1748348;82;21025;-79
2022/09/11 00:41:25;;;;;;;3.37;1.98;;;;;;;17.45;82.42;98748.97;1735377;82;21014;-81
2022/09/11 00:43:55;;;;;;;;;;;;;;;17.45;81.57;98749.45;1751087;82;20959;-79
2022/09/11 00:46:27;;;;;;;7.87;2.17;;;;;;;17.39;82.61;98751.09;1744754;80;20118;-79
2022/09/11 00:48:56;;;;;;;3.83;2.30;;;;;;;17.35;82.02;98753.08;1738601;81;21106;-79
2022/09/11 00:51:27;;;;;;;8.75;2.50;;;;;;;17.30;82.41;98749.38;1744476;82;21094;-79
2022/09/11 00:53:57;;;;;;;4.53;2.47;;;;;;;17.25;82.14;98747.51;1753623;82;21459;-79
2022/09/11 00:56:27;;;;;;;5.60;2.60;;;;;;;17.19;83.17;98746.55;1754123;82;21009;-80
2022/09/11 00:58:56;;;;;;;9.20;2.87;;;;;;;17.10;83.24;98746.59;1741578;82;20998;-81
2022/09/11 01:01:23;;;;;;;7.25;2.60;;;;;;;17.09;82.50;98742.77;1733590;82;21022;-79
2022/09/11 01:03:50;;;;;;;7.97;2.83;;;;;;;17.03;83.02;98750.53;1744792;82;21054;-79
2022/09/11 01:06:19;;;;;;;4.53;2.77;;;;;;;16.99;82.31;98741.58;1754280;82;21645;-80
2022/09/11 01:08:46;;;;;;;8.00;2.75;;;;;;;16.93;83.18;98733.61;1744545;82;20999;-79
2022/09/11 01:11:27;;;;;;;6.72;2.95;;;;;;;16.88;83.09;98740.88;1749656;80;20991;-79
2022/09/11 01:14:11;;;;;;;4.50;2.90;;;;;;;16.82;83.51;98739.45;1745220;80;21483;-79
2022/09/11 01:17:01;;;;;;;5.47;2.70;;;;;;;16.76;83.79;98743.70;1739361;80;21014;-80
2022/09/11 01:19:54;;;;;;;7.92;2.87;;;;;;;16.73;83.94;98738.61;1757325;80;21068;-79
2022/09/11 01:22:41;;;;;;;;;;;;;;;16.68;84.43;98731.00;1733363;83;21017;-79
2022/09/11 01:25:26;;;;;;;5.92;2.33;;;;;;;16.65;84.54;98735.56;1760869;81;20142;-81
2022/09/11 01:27:56;;;;;;;5.87;2.47;;;;;;;16.63;84.87;98734.36;1734219;82;21019;-79
2022/09/11 01:30:31;;;;;;;4.58;2.67;;;;;;;16.58;85.23;98733.76;1733842;83;21030;-79
2022/09/11 01:33:29;;;;;;;4.65;2.37;;;;;;;16.59;84.23;98735.47;1731700;82;21000;-79
2022/09/11 01:36:11;;;;;;;5.47;2.47;;;;;;;16.55;84.21;98731.77;1734115;82;20981;-78
2022/09/11 01:39:01;;;;;;;6.97;3.00;;;;;;;16.53;84.17;98737.09;1734344;82;21502;-79
2022/09/11 01:41:37;;;;;;;5.85;2.60;;;;;;;16.53;84.41;98737.09;1760925;81;20996;-79
2022/09/11 01:44:15;;;;;;;5.30;2.75;;;;;;;16.49;84.05;98731.63;1739144;81;21020;-79
2022/09/11 01:46:49;;;;;;;6.65;2.83;;;;;;;16.45;84.97;98726.17;1753734;81;20988;-80
2022/09/11 01:49:44;;;;;;;6.55;2.20;;;;;;;16.44;84.77;98729.27;1759267;81;21030;-79
2022/09/11 01:52:22;;;;;;;7.33;2.92;;;;;;;16.42;84.82;98723.27;1758085;81;21052;-80
2022/09/11 01:54:54;;;;;;;5.65;2.90;;;;;;;16.42;84.75;98722.42;1733915;83;20969;-79
2022/09/11 01:57:45;;;;;;;5.90;2.62;;;;;;;16.34;85.42;98721.53;1734059;82;20986;-80
2022/09/11 02:00:14;;;;;;;6.42;2.42;;;;;;;16.29;85.16;98717.86;1733979;83;21564;-79
2022/09/11 02:02:51;;;;;;;6.62;2.98;;;;;;;16.21;84.99;98725.73;1730809;82;21014;-79
2022/09/11 02:05:26;;;;;;;3.85;2.20;;;;;;;16.13;84.21;98716.13;1717266;83;21534;-80
2022/09/11 02:08:01;;;;;;;6.20;2.55;;;;;;;16.12;84.94;98724.47;1733933;82;21026;-79
2022/09/11 02:10:45;;;;;;;9.90;2.65;;;;;;;16.08;85.87;98716.39;1758171;81;21047;-80
2022/09/11 02:13:24;;;;;;;4.30;2.20;;;;;;;16.08;86.05;98719.84;1753918;81;21059;-81
2022/09/11 02:16:02;;;;;;;6.87;2.60;;;;;;;16.08;86.69;98711.14;1731105;82;21025;-79
2022/09/11 02:18:40;;;;;;;9.28;2.85;;;;;;;16.08;86.11;98716.39;1713713;82;21604;-78
2022/09/11 02:21:06;;;;;;;4.87;2.50;;;;;;;16.06;85.76;98712.53;1727360;82;21044;-79
2022/09/11 02:23:33;;;;;;;6.10;2.40;;;;;;;16.06;86.41;98713.84;1720031;82;21044;-79
2022/09/11 02:26:03;;;;;;;4.12;2.50;;;;;;;16.06;87.07;98713.84;1733394;83;21030;-79
2022/09/11 02:28:30;;;;;;;9.83;2.70;;;;;;;16.05;87.37;98713.91;1734199;83;20993;-80
2022/09/11 02:30:56;;;;;;;4.08;2.60;;;;;;;16.05;86.56;98713.45;1709229;83;21037;-80
2022/09/11 02:33:35;;;;;;;3.17;2.12;;;;;;;16.06;85.98;98719.09;1728571;83;20994;-80
2022/09/11 02:36:34;;;;;;;8.60;2.60;;;;;;;16.05;85.88;98716.54;1706222;83;21032;-80
2022/09/11 02:39:38;;;;;;;4.70;2.40;;;;;;;15.98;86.71;98713.87;1747186;82;21011;-80
2022/09/11 02:42:27;;;;;;;12.33;2.92;;;;;;;15.96;86.11;98711.34;1698737;83;21059;-79
2022/09/11 02:45:06;;;;;;;3.47;2.40;;;;;;;15.93;87.37;98706.23;1724937;82;21013;-80
2022/09/11 02:48:05;;;;;;;4.12;2.33;;;;;;;15.92;87.56;98709.80;1748078;81;21039;-81
2022/09/11 02:50:55;;;;;;;4.20;2.20;;;;;;;15.90;86.60;98705.95;1729602;83;21011;-80
2022/09/11 02:53:30;;;;;;;11.75;2.50;;;;;;;15.87;87.18;98707.88;1724723;83;20997;-80
2022/09/11 02:56:31;;;;;;;6.35;2.52;;;;;;;15.85;87.67;98692.23;1737304;81;21016;-79
2022/09/11 02:59:04;;;;;;;5.85;2.27;;;;;;;15.83;88.12;98694.08;1738577;81;20987;-80
2022/09/11 03:01:53;;;;;;;6.92;2.77;;;;;;;15.81;87.70;98690.70;1716998;82;21053;-79
2022/09/11 03:04:23;;;;;;;4.35;2.30;;;;;;;15.76;88.37;98695.83;1715673;82;21088;-79
2022/09/11 03:06:52;;;;;;;8.43;2.35;;;;;;;15.73;88.47;98701.21;1741144;82;21064;-79
2022/09/11 03:09:19;;;;;;;5.17;2.30;;;;;;;15.74;87.81;98706.82;1711568;83;21043;-80
2022/09/11 03:11:48;;;;;;;4.67;2.72;;;;;;;15.69;88.84;98708.34;1749565;80;20971;-80
2022/09/11 03:14:16;;;;;;;4.70;2.83;;;;;;;15.65;88.14;98705.03;1714848;83;21024;-80
2022/09/11 03:16:42;;;;;;;4.08;2.83;;;;;;;15.64;88.04;98711.69;1752880;81;21019;-80
2022/09/11 03:19:11;;;;;;;8.85;2.90;;;;;;;15.60;88.43;98703.13;1721932;82;21017;-81
2022/09/11 03:21:38;;;;;;;4.20;2.85;;;;;;;15.51;88.11;98701.81;1733886;82;21027;-79
2022/09/11 03:24:07;;;;;;;7.65;2.50;;;;;;;15.50;88.51;98713.71;1713585;82;20987;-79
2022/09/11 03:26:36;;;;;;;4.75;2.72;;;;;;;15.46;89.05;98713.48;1760829;81;21533;-79
2022/09/11 03:29:03;;;;;;;5.60;2.25;;;;;;;15.41;89.11;98715.48;1753152;81;20965;-80
2022/09/11 03:31:30;;;;;;;7.75;2.65;;;;;;;15.40;88.94;98708.53;1740985;82;21311;-80
2022/09/11 03:33:58;;;;;;;6.95;2.47;;;;;;;15.34;89.65;98716.27;1723100;83;21005;-79
2022/09/11 03:36:25;;;;;;;4.40;2.55;;;;;;;15.33;89.06;98715.02;1742662;82;21510;-79
2022/09/11 03:38:54;;;;;;;4.97;2.45;;;;;;;15.30;89.13;98722.58;1741508;82;21026;-80
2022/09/11 03:41:21;;;;;;;6.90;2.67;;;;;;;15.30;89.02;98714.26;1742339;82;21066;-82
2022/09/11 03:43:47;;;;;;;6.30;3.15;;;;;;;15.24;89.04;98715.88;1714951;82;20969;-81
2022/09/11 03:46:14;;;;;;;9.23;3.15;;;;;;;15.22;90.10;98724.27;1742406;82;20994;-80
2022/09/11 03:48:41;;;;;;;3.98;2.33;;;;;;;15.21;90.00;98722.56;1742192;82;21131;-81
2022/09/11 03:51:07;;;;;;;6.37;2.72;;;;;;;15.18;90.20;98718.80;1742278;82;21059;-84
2022/09/11 03:53:34;;;;;;;6.92;2.67;;;;;;;15.18;89.56;98727.97;1742051;81;20993;-81
2022/09/11 03:56:03;;;;;;;5.97;2.72;;;;;;;15.16;90.55;98736.80;1720390;82;21046;-80
2022/09/11 03:58:32;;;;;;;5.08;2.95;;;;;;;15.17;89.84;98735.89;1742574;82;21093;-80
2022/09/11 04:00:59;;;;;;;5.45;2.85;;;;;;;15.15;90.97;98735.97;1737211;82;21064;-80
2022/09/11 04:03:26;;;;;;;8.75;2.72;;;;;;;15.14;90.46;98738.21;1749991;81;20983;-80
2022/09/11 04:06:01;;;;;;;6.30;2.60;;;;;;;15.13;90.36;98740.42;1742241;82;21323;-79
2022/09/11 04:08:32;;;;;;;6.83;2.90;;;;;;;15.16;90.21;98739.42;1742892;82;21029;-80
2022/09/11 04:11:04;;;;;;;3.90;2.35;;;;;;;15.15;90.41;98737.27;1742683;82;21058;-80
2022/09/11 04:13:35;;;;;;;9.03;2.60;;;;;;;15.14;90.12;98738.21;1742444;82;21109;-79
2022/09/11 04:16:08;;;;;;;4.00;2.10;;;;;;;15.17;90.30;98748.52;1742490;82;21473;-80
2022/09/11 04:18:38;;;;;;;8.18;2.30;;;;;;;15.19;90.48;98747.14;1739419;82;21031;-80
2022/09/11 04:21:06;;;;;;;10.82;2.70;;;;;;;15.19;90.57;98750.59;1727313;82;21518;-80
2022/09/11 04:23:34;;;;;;;5.05;2.37;;;;;;;15.18;91.26;98752.84;1746806;81;21512;-80
2022/09/11 04:26:01;;;;;;;5.42;2.35;;;;;;;15.20;90.96;98754.92;1756218;81;21142;-79
2022/09/11 04:28:30;;;;;;;6.87;2.35;;;;;;;15.22;91.19;98757.45;1740493;82;21050;-79
2022/09/11 04:31:02;;;;;;;4.30;2.80;;;;;;;15.24;91.17;98764.32;1725825;83;21037;-79
2022/09/11 04:33:30;;;;;;;7.08;2.47;;;;;;;15.30;89.58;98767.95;1732144;82;21039;-80
2022/09/11 04:36:01;;;;;;;5.42;2.67;;;;;;;15.33;89.47;98761.70;1747886;82;20942;-80
2022/09/11 04:38:28;;;;;;;4.67;2.62;;;;;;;15.31;90.50;98765.70;1715406;82;21539;-79
2022/09/11 04:40:58;;;;;;;5.05;2.40;;;;;;;15.36;90.40;98772.47;1704735;83;21026;-79
2022/09/11 04:43:26;;;;;;;4.70;2.40;;;;;;;15.39;90.13;98764.48;1754531;82;21013;-79
2022/09/11 04:46:02;;;;;;;4.00;2.27;;;;;;;15.41;89.96;98764.78;1754361;82;20973;-79
2022/09/11 04:48:28;;;;;;;4.22;2.35;;;;;;;15.43;89.47;98764.23;1752857;82;21131;-81
2022/09/11 04:51:04;;;;;;;6.58;2.30;;;;;;;15.48;88.99;98762.25;1736921;82;20974;-80
2022/09/11 04:53:32;;;;;;;5.17;2.20;;;;;;;15.50;89.34;98759.56;1754441;82;21008;-79
2022/09/11 04:56:05;;;;;;;9.08;2.90;;;;;;;15.53;88.87;98755.45;1730215;82;21396;-79
2022/09/11 04:58:34;;;;;;;5.62;2.47;;;;;;;15.55;89.37;98754.08;1737914;82;21015;-80
2022/09/11 05:01:08;;;;;;;4.60;2.42;;;;;;;15.56;89.85;98766.23;1733513;82;21022;-81
2022/09/11 05:03:36;;;;;;;6.85;2.52;;;;;;;15.60;89.11;98756.01;1728323;83;21089;-80
2022/09/11 05:06:06;;;;;;;6.53;2.80;;;;;;;15.62;89.21;98760.71;1710513;83;21303;-80
2022/09/11 05:08:33;;;;;;;5.67;2.83;;;;;;;15.63;89.20;98755.36;1760716;81;20982;-80
2022/09/11 05:11:07;;;;;;;5.08;2.90;;;;;;;15.65;89.40;98760.53;1756397;80;21017;-80
2022/09/11 05:13:33;;;;;;;7.20;2.50;;;;;;;15.65;89.40;98772.33;1754561;81;21029;-79
2022/09/11 05:16:03;;;;;;;8.30;2.70;;;;;;;15.68;89.17;98765.63;1728049;82;21539;-80
2022/09/11 05:18:30;;;;;;;6.80;2.30;;;;;;;15.69;89.04;98761.60;1730388;81;21487;-81
2022/09/11 05:21:03;;;;;;;5.00;2.40;;;;;;;15.70;88.94;98759.37;1720463;81;21034;-80
2022/09/11 05:23:31;;;;;;;9.20;2.87;;;;;;;15.71;88.92;98765.45;1689299;83;21011;-81
2022/09/11 05:26:01;;;;;;;8.13;2.40;;;;;;;15.76;88.82;98767.90;1720210;82;20992;-81
2022/09/11 05:28:31;;;;;;;5.12;2.47;;;;;;;15.79;88.82;98761.17;1721516;82;21015;-81
2022/09/11 05:30:59;;;;;;;5.42;2.62;;;;;;;15.85;88.27;98768.24;1722824;83;21031;-79
2022/09/11 05:33:27;;;;;;;7.12;2.42;;;;;;;15.90;88.18;98761.00;1719381;82;21717;-80
2022/09/11 05:35:58;;;;;;;7.10;2.58;;;;;;;15.98;87.99;98757.98;1725257;82;21011;-80
2022/09/11 05:38:25;;;;;;;5.30;2.10;;;;;;;16.04;88.15;98766.83;1723060;83;21015;-81
2022/09/11 05:40:52;;;;;;;4.62;2.27;;;;;;;16.09;87.95;98763.52;1713157;82;21011;-79
2022/09/11 05:43:20;;;;;;;4.30;2.65;;;;;;;16.17;87.82;98767.48;1717036;82;21511;-79
2022/09/11 05:45:56;;;;;;;8.08;2.02;;;;;;;16.22;87.73;98760.23;1712365;82;21032;-80
2022/09/11 05:48:31;;;;;;;5.70;2.12;;;;;;;16.32;87.29;98755.34;1729980;82;21116;-79
2022/09/11 05:51:08;;;;;;;3.90;2.17;;;;;;;16.34;87.13;98751.70;1708285;82;22223;-79
2022/09/11 05:53:37;;;;;;;4.00;2.30;;;;;;;16.40;86.85;98748.73;1699973;83;21071;-81
2022/09/11 05:56:20;;;;;;;6.87;2.20;;;;;;;16.47;86.56;98743.99;1715964;82;21072;-80
2022/09/11 05:58:50;;;;;;;7.50;2.35;;;;;;;16.53;86.34;98738.88;1717038;82;21019;-80
2022/09/11 06:01:26;;;;;;;3.83;2.02;;;;;;;16.60;85.66;98740.24;1720478;83;21033;-79
2022/09/11 06:03:54;;;;;;;3.83;2.08;;;;;;;16.62;85.26;98730.50;1716650;82;21099;-79
2022/09/11 06:06:23;;;;;;;5.62;2.08;;;;;;;16.65;85.49;98744.75;1711108;82;21024;-79
2022/09/11 06:08:51;;;;;;;3.95;2.10;;;;;;;16.74;85.31;98743.41;1714672;82;21003;-80
2022/09/11 06:11:20;;;;;;;7.08;1.95;;;;;;;16.79;84.64;98742.23;1711061;82;21083;-79
2022/09/11 06:13:48;;;;;;;4.70;2.15;;;;;;;16.87;84.33;98743.98;1706090;82;21562;-79
2022/09/11 06:16:19;;;;;;;5.03;1.80;;;;;;;16.92;84.35;98737.15;1710591;83;20968;-79
2022/09/11 06:18:49;;;;;;;3.12;1.87;;;;;;;16.99;84.10;98735.87;1719898;82;21018;-80
2022/09/11 06:21:23;;;;;;;4.53;1.98;;;;;;;17.12;84.16;98733.38;1757739;81;20999;-79
2022/09/11 06:23:54;;;;;;;3.33;1.98;;;;;;;17.17;83.32;98737.05;1756324;81;21633;-79
2022/09/11 06:26:25;;;;;;;3.22;1.75;;;;;;;17.22;81.99;98739.79;1761018;81;21003;-80
2022/09/11 06:28:54;;;;;;;2.67;1.80;;;;;;;17.28;82.31;98734.66;1759817;81;20999;-79
2022/09/11 06:31:25;;;;;;;5.37;1.50;;;;;;;17.36;81.97;98725.84;1758032;81;20996;-79
2022/09/11 06:33:53;;;;;;;6.60;1.77;;;;;;;17.45;80.98;98718.75;1709172;83;21039;-79
2022/09/11 06:36:23;;;;;;;2.87;1.67;;;;;;;17.52;79.95;98729.73;1703524;84;21003;-79
2022/09/11 06:38:57;;;;;;;5.25;1.55;;;;;;;17.58;79.19;98729.36;1752843;81;20999;-80
2022/09/11 06:41:27;;;;;;;5.03;2.17;;;;;;;17.62;78.13;98726.92;1730606;82;21083;-80
2022/09/11 06:43:56;;;;;;;4.05;1.82;;;;;;;17.75;78.76;98723.59;1729211;82;21024;-80
2022/09/11 06:46:25;;;;;;;4.20;1.80;;;;;;;17.81;78.03;98716.64;1738266;82;20987;-79
2022/09/11 06:48:56;;;;;;;5.83;1.77;;;;;;;17.88;78.13;98718.80;1742300;82;21210;-80
2022/09/11 06:51:25;;;;;;;9.35;1.65;;;;;;;17.96;77.42;98709.61;1743937;82;21320;-81
2022/09/11 06:53:57;;;;;;;3.15;1.52;;;;;;;18.02;76.60;98719.27;1743425;82;21044;-79
2022/09/11 06:56:31;;;;;;;3.42;1.60;;;;;;;18.09;76.32;98723.23;1721207;82;21656;-79
2022/09/11 06:58:57;;;;;;;7.58;1.75;;;;;;;18.16;76.23;98714.95;1741617;82;21074;-78
2022/09/11 07:01:25;;;;;;;4.25;1.80;;;;;;;18.22;76.31;98724.65;1742341;82;21007;-79
2022/09/11 07:03:56;;;;;;;3.20;1.60;;;;;;;18.34;76.40;98720.84;1744196;82;21032;-79
2022/09/11 07:06:26;;;;;;;3.75;1.40;;;;;;;18.43;74.87;98727.70;1742495;82;21026;-80
2022/09/11 07:08:59;;;;;;;3.35;1.40;;;;;;;18.49;74.97;98724.67;1741244;82;21004;-79
2022/09/11 07:11:31;;;;;;;3.75;1.50;;;;;;;18.59;74.62;98721.47;1722956;83;20979;-79
2022/09/11 07:14:04;;;;;;;2.47;1.42;;;;;;;18.68;73.47;98730.94;1718425;82;20969;-78
2022/09/11 07:16:33;;;;;;;2.22;1.20;;;;;;;18.77;73.49;98732.12;1754648;81;21051;-80
2022/09/11 07:19:02;;;;;;;7.90;1.40;;;;;;;18.90;72.96;98726.95;1748334;82;20979;-79
2022/09/11 07:21:29;;;;;;;4.45;1.27;;;;;;;18.99;71.25;98722.38;1736746;82;21006;-79
2022/09/11 07:23:59;;;;;;;2.58;1.30;;;;;;;19.07;70.97;98731.11;1734403;82;21002;-79
2022/09/11 07:26:34;;;;;;;8.50;1.20;;;;;;;19.20;71.11;98724.54;1735298;82;21006;-80
2022/09/11 07:28:59;;;;;;;1.83;1.00;;;;;;;19.29;69.93;98723.94;1716384;82;21568;-78
2022/09/11 07:31:29;;;;;;;3.00;1.70;;;;;;;19.36;69.64;98733.58;1737406;82;21027;-79
2022/09/11 07:33:56;;;;;;;4.20;1.30;;;;;;;19.43;69.50;98730.44;1718854;82;20959;-79
2022/09/11 07:36:27;;;;;;;3.85;1.50;;;;;;;19.54;68.43;98721.82;1739550;82;21065;-79
2022/09/11 07:38:55;;;;;;;4.22;1.25;;;;;;;19.63;67.82;98719.02;1739682;82;21479;-79
2022/09/11 07:41:25;;;;;;;3.00;1.30;;;;;;;19.67;67.68;98730.56;1739525;82;21566;-80
2022/09/11 07:43:56;;;;;;;2.27;1.15;;;;;;;19.77;66.44;98731.30;1739432;82;21498;-79
2022/09/11 07:46:26;;;;;;;6.60;1.32;;;;;;;19.84;65.81;98741.80;1710849;83;21000;-80
2022/09/11 07:48:56;;;;;;;1.90;1.00;;;;;;;19.90;65.04;98743.18;1737264;82;21108;-79
2022/09/11 07:51:25;;;;;;;1.85;1.30;;;;;;;19.98;65.34;98735.58;1739658;82;21018;-79
2022/09/11 07:53:55;;;;;;;3.00;1.30;;;;;;;20.10;64.89;98736.52;1728244;81;20971;-79
2022/09/11 07:56:24;;;;;;;1.95;1.10;;;;;;;20.18;64.45;98746.05;1716865;82;21026;-79
2022/09/11 07:58:54;;;;;;;2.55;1.27;;;;;;;20.22;63.95;98739.61;1747509;82;21003;-80
2022/09/11 08:01:26;;;;;;;2.20;1.10;;;;;;;20.24;63.79;98741.17;1740933;82;21038;-80
2022/09/11 08:03:59;;;;;;;3.37;1.10;;;;;;;20.27;64.57;98737.47;1740234;82;21280;-80
2022/09/11 08:06:30;;;;;;;1.30;1.02;;;;;;;20.34;63.60;98741.86;1739845;82;21066;-79
2022/09/11 08:09:02;;;;;;;5.47;1.30;;;;;;;20.41;63.59;98743.95;1740152;82;20999;-80
2022/09/11 08:11:35;;;;;;;;;;;;;;;20.44;62.22;98738.44;1722206;82;21080;-79
2022/09/11 08:14:01;;;;;;;4.50;0.98;;;;;;;20.50;62.34;98740.29;1740342;82;20127;-78
2022/09/11 08:16:28;;;;;;;2.20;1.20;;;;;;;20.50;62.34;98733.69;1734997;82;21028;-80
2022/09/11 08:18:57;;;;;;;4.92;1.37;;;;;;;20.50;61.89;98736.33;1712090;83;21533;-80
2022/09/11 08:21:29;;;;;;;2.95;1.20;;;;;;;20.56;61.96;98736.72;1709682;83;21046;-80
2022/09/11 08:23:54;;;;;;;2.90;1.12;;;;;;;20.63;61.18;98742.42;1728447;82;21509;-79
2022/09/11 08:26:29;;;;;;;4.65;1.20;;;;;;;20.71;60.48;98741.88;1734058;82;21006;-79
2022/09/11 08:28:59;;;;;;;1.85;1.10;;;;;;;20.81;59.04;98746.84;1759350;81;21009;-80
2022/09/11 08:31:28;;;;;;;4.35;1.07;;;;;;;20.94;59.70;98743.69;1759710;81;20993;-80
2022/09/11 08:33:57;;;;;;;4.35;1.20;;;;;;;21.01;58.62;98742.30;1759514;81;21025;-79
2022/09/11 08:36:25;;;;;;;3.30;1.00;;;;;;;21.14;55.17;98740.89;1759275;81;21044;-79
2022/09/11 08:38:52;;;;;;;1.52;1.00;;;;;;;21.25;54.86;98747.55;1757490;81;20989;-78
2022/09/11 08:41:28;;;;;;;1.45;0.98;;;;;;;21.22;51.11;98743.80;1739593;82;20975;-79
2022/09/11 08:44:17;;;;;;;1.00;0.88;;;;;;;21.18;50.91;98746.31;1759052;81;21532;-80
2022/09/11 08:47:01;;;;;;;3.08;0.90;;;;;;;21.28;52.84;98743.00;1759478;81;21024;-79
2022/09/11 08:49:45;;;;;;;0.82;0.80;;;;;;;21.28;51.46;98739.86;1737777;81;21580;-78
2022/09/11 08:52:15;;;;;;;1.67;0.82;;;;;;;21.29;52.14;98738.05;1759321;81;21517;-79
2022/09/11 08:54:46;;;;;;;1.60;0.75;;;;;;;21.29;49.91;98743.34;1759499;81;21040;-79
2022/09/11 08:57:19;;;;;;;2.45;0.80;;;;;;;21.24;49.21;98743.70;1759492;81;20996;-79
2022/09/11 09:00:16;;;;;;;1.07;0.73;;;;;;;21.33;47.89;98738.19;1738441;81;20989;-79
2022/09/11 09:03:09;;;;;;;1.90;0.93;;;;;;;21.40;47.56;98731.48;1738053;81;22253;-79
2022/09/11 09:06:14;;;;;;;0.80;0.65;;;;;;;21.43;49.32;98732.62;1759530;81;21040;-78
2022/09/11 09:09:22;;;;;;;1.92;1.05;;;;;;;21.47;47.73;98722.17;1726270;81;20996;-79
2022/09/11 09:12:23;;;;;;;0.88;0.80;;;;;;;21.64;49.03;98723.03;1755629;81;21003;-80
2022/09/11 09:15:01;;;;;;;0.88;0.80;;;;;;;21.76;48.58;98725.70;1706753;83;21055;-80
2022/09/11 09:18:00;;;;;;;2.70;1.27;;;;;;;21.74;48.76;98726.30;1738472;82;21076;-80
2022/09/11 09:20:36;;;;;;;1.30;0.85;;;;;;;21.72;48.36;98731.70;1733780;82;21054;-78
2022/09/11 09:23:26;;;;;;;2.80;1.00;;;;;;;21.74;47.79;98736.40;1744616;82;21055;-79
2022/09/11 09:25:56;;;;;;;1.17;0.80;;;;;;;21.84;48.42;98733.89;1714803;82;21022;-79
2022/09/11 09:28:28;;;;;;;1.45;1.00;;;;;;;21.81;47.17;98750.02;1736082;82;21497;-78
2022/09/11 09:30:58;;;;;;;2.83;1.25;;;;;;;21.80;47.54;98745.67;1719185;82;21039;-79
2022/09/11 09:33:34;;;;;;;8.80;1.10;;;;;;;21.79;47.83;98738.71;1738668;82;20985;-80
2022/09/11 09:36:19;;;;;;;1.72;0.80;;;;;;;21.75;48.57;98738.09;1743848;82;21035;-79
2022/09/11 09:38:48;;;;;;;2.25;1.10;;;;;;;21.81;49.35;98738.11;1732171;82;20992;-80
2022/09/11 09:41:40;;;;;;;1.98;1.00;;;;;;;21.82;47.35;98752.52;1727734;82;21011;-79
2022/09/11 09:44:13;;;;;;;3.50;1.00;;;;;;;21.80;48.38;98749.64;1727825;82;21107;-79
2022/09/11 09:46:47;;;;;;;1.37;0.78;;;;;;;21.76;47.70;98745.06;1722038;82;20989;-79
2022/09/11 09:49:25;;;;;;;4.83;1.00;;;;;;;21.85;48.72;98747.50;1748980;81;21127;-78
2022/09/11 09:51:54;;;;;;;4.03;0.93;;;;;;;21.94;48.94;98738.83;1721459;82;21505;-79
2022/09/11 09:54:30;;;;;;;2.27;1.10;;;;;;;21.93;49.30;98738.48;1754599;81;21054;-79
2022/09/11 09:57:05;;;;;;;2.50;1.10;;;;;;;21.94;49.09;98738.83;1736126;81;21004;-79
2022/09/11 09:59:55;;;;;;;1.52;1.00;;;;;;;21.97;48.11;98734.63;1742217;81;21056;-80
2022/09/11 10:02:49;;;;;;;0.85;0.80;;;;;;;21.98;47.69;98732.33;1731900;81;21502;-79
2022/09/11 10:05:41;;;;;;;3.15;0.90;;;;;;;21.99;46.49;98732.70;1706699;82;21030;-80
2022/09/11 10:08:28;;;;;;;1.52;0.90;;;;;;;22.15;47.99;98732.34;1720754;81;21048;-79
2022/09/11 10:11:01;;;;;;;2.17;0.80;;;;;;;22.32;48.27;98732.84;1745057;81;21285;-80
2022/09/11 10:13:32;;;;;;;1.72;0.90;;;;;;;22.38;46.92;98736.33;1715684;82;21060;-80
2022/09/11 10:16:02;;;;;;;0.88;0.70;;;;;;;22.53;47.25;98743.55;1755997;81;21005;-80
2022/09/11 10:18:36;;;;;;;1.17;1.00;;;;;;;22.58;45.97;98746.66;1751444;82;21009;-80
2022/09/11 10:21:21;;;;;;;1.52;0.88;;;;;;;22.53;46.53;98748.84;1727372;82;21104;-79
2022/09/11 10:24:01;;;;;;;1.75;0.60;;;;;;;22.57;47.44;98738.36;1718188;81;21006;-78
2022/09/11 10:26:56;;;;;;;1.72;0.80;;;;;;;22.53;46.17;98740.41;1711292;82;21027;-78
2022/09/11 10:29:28;;;;;;;2.20;1.00;;;;;;;22.58;47.21;98732.95;1716756;82;21593;-80
2022/09/11 10:32:00;;;;;;;2.60;1.00;;;;;;;22.54;46.97;98725.34;1752749;82;21501;-80
2022/09/11 10:34:35;;;;;;;1.90;0.80;;;;;;;22.46;46.39;98723.80;1742206;82;21269;-80
2022/09/11 10:37:22;;;;;;;3.12;1.00;;;;;;;22.46;46.33;98713.20;1753486;82;21518;-80
2022/09/11 10:39:49;;;;;;;1.35;0.80;;;;;;;22.40;46.38;98718.51;1739106;82;21003;-79
2022/09/11 10:42:22;;;;;;;2.42;0.90;;;;;;;22.53;46.99;98707.78;1723774;82;20970;-79
2022/09/11 10:44:51;;;;;;;2.02;1.10;;;;;;;22.68;47.26;98705.23;1735299;82;21021;-79
2022/09/11 10:47:23;;;;;;;2.75;0.78;;;;;;;22.69;46.71;98710.03;1747880;82;21514;-79
2022/09/11 10:50:19;;;;;;;1.98;0.90;;;;;;;22.73;46.72;98700.38;1746157;82;21009;-81
2022/09/11 10:53:00;;;;;;;2.92;1.52;;;;;;;22.87;46.42;98698.41;1734176;82;21005;-80
2022/09/11 10:55:32;;;;;;;4.12;1.00;;;;;;;22.88;47.05;98709.36;1726961;82;21597;-79
2022/09/11 10:58:10;;;;;;;2.55;0.82;;;;;;;22.83;46.11;98713.23;1730408;82;21074;-79
2022/09/11 11:00:37;;;;;;;1.05;0.70;;;;;;;22.75;46.84;98710.86;1734116;82;21050;-80
2022/09/11 11:03:22;;;;;;;2.30;0.70;;;;;;;22.67;46.27;98712.80;1752926;82;21459;-79
2022/09/11 11:06:31;;;;;;;1.05;0.80;;;;;;;22.70;45.86;98720.52;1750162;82;21046;-80
2022/09/11 11:09:18;;;;;;;1.60;0.70;;;;;;;22.57;45.91;98713.20;1740039;82;21497;-79
2022/09/11 11:12:08;;;;;;;1.60;0.70;;;;;;;22.55;46.31;98711.98;1729752;82;20995;-79
2022/09/11 11:15:01;;;;;;;2.27;0.70;;;;;;;22.66;46.78;98720.41;1743515;82;21029;-80
2022/09/11 11:17:52;;;;;;;2.20;0.88;;;;;;;22.78;46.68;98710.12;1704456;83;20975;-80
2022/09/11 11:20:27;;;;;;;3.00;0.70;;;;;;;22.98;45.66;98715.13;1710228;81;21046;-78
2022/09/11 11:23:36;;;;;;;1.80;0.98;;;;;;;23.12;45.03;98705.19;1676575;83;28087;-78
2022/09/11 11:26:32;;;;;;;1.07;0.88;;;;;;;23.43;45.00;98714.08;1734311;82;21017;-78
2022/09/11 11:29:32;;;;;;;3.52;0.80;;;;;;;23.64;43.07;98698.16;1738035;79;21055;-78
2022/09/11 11:32:26;;;;;;;3.00;0.80;;;;;;;23.96;44.96;98707.36;1768307;79;21492;-79
2022/09/11 11:35:25;;;;;;;1.47;0.78;;;;;;;24.16;43.45;98701.64;1759223;79;20994;-79
2022/09/11 11:38:01;;;;;;;1.07;0.80;;;;;;;24.33;43.49;98693.53;1753991;81;20964;-80
2022/09/11 11:40:45;;;;;;;1.65;0.68;;;;;;;24.38;40.80;98697.09;1773598;79;21035;-79
2022/09/11 11:43:20;;;;;;;1.20;0.90;;;;;;;24.61;41.00;98679.98;1760144;79;20979;-79
2022/09/11 11:45:51;;;;;;;1.52;0.88;;;;;;;24.85;42.02;98686.72;1764866;79;21486;-80
2022/09/11 11:48:43;;;;;;;2.10;0.75;;;;;;;25.06;38.89;98690.55;1756843;79;20977;-80
2022/09/11 11:51:16;;;;;;;0.93;0.70;;;;;;;25.37;41.59;98691.76;1752429;79;21086;-80
2022/09/11 11:53:54;;;;;;;0.80;0.70;;;;;;;25.74;38.38;98694.95;1771139;80;21116;-80
2022/09/11 11:56:41;;;;;;;1.35;0.80;;;;;;;25.75;38.29;98699.30;1752302;79;21434;-80
2022/09/11 12:00:02;;;;;;;3.12;0.82;;;;;;;25.65;38.33;98702.48;1752100;79;21010;-79
2022/09/11 12:02:46;;;;;;;2.10;0.90;;;;;;;25.87;39.66;98698.64;1772627;79;21053;-79
2022/09/11 12:05:26;;;;;;;1.05;0.70;;;;;;;26.06;40.31;98686.58;1742878;79;21514;-80
2022/09/11 12:07:53;;;;;;;4.05;0.90;;;;;;;26.08;38.00;98683.78;1764788;79;20969;-79
2022/09/11 12:10:36;;;;;;;1.77;0.70;;;;;;;25.47;38.30;98688.59;1742879;79;21010;-80